createdAt,value
2022-10-13T00:01:38.095Z,9.87
2022-10-13T00:04:04.666Z,9.88
2022-10-13T00:06:32.109Z,10.01
2022-10-13T00:08:59.020Z,9.94
2022-10-13T00:11:30.282Z,9.98
2022-10-13T00:13:59.849Z,9.90
2022-10-13T00:16:27.559Z,9.94
2022-10-13T00:18:54.295Z,9.94
2022-10-13T00:21:23.801Z,9.98
2022-10-13T00:23:51.756Z,10.01
2022-10-13T00:26:18.822Z,9.94
2022-10-13T00:28:49.784Z,9.95
2022-10-13T00:31:25.762Z,9.99
2022-10-13T00:33:55.876Z,10.06
2022-10-13T00:36:23.332Z,10.01
2022-10-13T00:38:50.389Z,9.98
2022-10-13T00:41:17.793Z,9.97
2022-10-13T00:44:04.467Z,9.95
2022-10-13T00:46:37.108Z,9.91
2022-10-13T00:49:12.769Z,9.92
2022-10-13T00:51:47.599Z,9.92
2022-10-13T00:54:19.971Z,9.91
2022-10-13T00:56:47.642Z,9.87
2022-10-13T00:59:23.250Z,9.90
2022-10-13T01:01:51.502Z,9.92
2022-10-13T01:04:22.686Z,9.94
2022-10-13T01:06:49.869Z,9.91
2022-10-13T01:09:17.013Z,9.91
2022-10-13T01:12:18.733Z,9.92
2022-10-13T01:14:45.390Z,9.94
2022-10-13T01:17:23.542Z,9.95
2022-10-13T01:20:16.154Z,9.97
2022-10-13T01:22:54.497Z,9.99
2022-10-13T01:25:58.533Z,10.01
2022-10-13T01:29:02.556Z,9.98
2022-10-13T01:31:42.320Z,9.97
2022-10-13T01:34:12.253Z,10.01
2022-10-13T01:36:55.908Z,9.97
2022-10-13T01:39:39.966Z,10.02
2022-10-13T01:42:18.156Z,10.03
2022-10-13T01:47:32.650Z,10.03
2022-10-13T01:52:42.755Z,9.99
2022-10-13T01:55:18.633Z,10.02
2022-10-13T01:57:45.367Z,10.03
2022-10-13T02:03:05.787Z,9.98
2022-10-13T02:05:49.396Z,10.01
2022-10-13T02:08:48.974Z,9.98
2022-10-13T02:11:21.527Z,9.95
2022-10-13T02:14:07.495Z,9.99
2022-10-13T02:16:38.328Z,9.98
2022-10-13T02:19:06.610Z,9.97
2022-10-13T02:21:35.246Z,9.91
2022-10-13T02:24:03.728Z,9.95
2022-10-13T02:26:32.349Z,9.91
2022-10-13T02:28:59.203Z,9.92
2022-10-13T02:31:26.658Z,9.88
2022-10-13T02:33:53.126Z,9.95
2022-10-13T02:36:19.626Z,9.99
2022-10-13T02:38:50.479Z,10.03
2022-10-13T02:41:17.024Z,10.05
2022-10-13T02:43:43.530Z,10.05
2022-10-13T02:46:10.474Z,10.03
2022-10-13T02:48:37.057Z,10.02
2022-10-13T02:51:03.693Z,10.02
2022-10-13T02:53:30.345Z,10.02
2022-10-13T02:55:56.836Z,10.05
2022-10-13T02:58:23.342Z,10.09
2022-10-13T03:00:50.002Z,10.08
2022-10-13T03:03:16.498Z,10.08
2022-10-13T03:05:44.130Z,10.08
2022-10-13T03:08:10.731Z,10.11
2022-10-13T03:10:37.502Z,10.13
2022-10-13T03:13:03.973Z,10.09
2022-10-13T03:15:30.468Z,10.13
2022-10-13T03:17:56.944Z,10.12
2022-10-13T03:20:24.669Z,10.19
2022-10-13T03:22:54.040Z,10.18
2022-10-13T03:25:20.551Z,10.21
2022-10-13T03:27:47.580Z,10.25
2022-10-13T03:30:14.062Z,10.22
2022-10-13T03:32:40.820Z,10.28
2022-10-13T03:35:07.919Z,10.28
2022-10-13T03:37:34.528Z,10.34
2022-10-13T03:40:00.992Z,10.36
2022-10-13T03:42:27.494Z,10.33
2022-10-13T03:44:56.514Z,10.36
2022-10-13T03:47:23.719Z,10.40
2022-10-13T03:49:51.588Z,10.42
2022-10-13T03:52:19.349Z,10.39
2022-10-13T03:54:45.837Z,10.42
2022-10-13T03:57:12.475Z,10.53
2022-10-13T03:59:41.835Z,10.56
2022-10-13T04:02:08.691Z,10.55
2022-10-13T04:04:37.197Z,10.60
2022-10-13T04:07:03.718Z,10.61
2022-10-13T04:09:30.362Z,10.64
2022-10-13T04:11:56.900Z,10.76
2022-10-13T04:14:24.397Z,10.67
2022-10-13T04:16:52.276Z,10.73
2022-10-13T04:19:18.692Z,10.77
2022-10-13T04:21:45.275Z,10.81
2022-10-13T04:24:13.281Z,10.80
2022-10-13T04:26:40.413Z,10.80
2022-10-13T04:29:08.581Z,10.74
2022-10-13T04:31:35.532Z,10.74
2022-10-13T04:34:02.040Z,10.77
2022-10-13T04:36:28.509Z,10.73
2022-10-13T04:38:57.342Z,10.64
2022-10-13T04:41:25.868Z,10.60
2022-10-13T04:43:53.814Z,10.59
2022-10-13T04:46:24.984Z,10.59
2022-10-13T04:48:51.969Z,10.60
2022-10-13T04:51:21.309Z,10.52
2022-10-13T04:53:48.016Z,10.59
2022-10-13T04:56:17.045Z,10.55
2022-10-13T04:58:45.288Z,10.61
2022-10-13T05:01:21.230Z,10.61
2022-10-13T05:03:54.484Z,10.61
2022-10-13T05:06:24.738Z,10.60
2022-10-13T05:08:51.895Z,10.61
2022-10-13T05:11:20.573Z,10.61
2022-10-13T05:13:48.447Z,10.57
2022-10-13T05:16:18.689Z,10.59
2022-10-13T05:18:45.401Z,10.60
2022-10-13T05:21:13.638Z,10.59
2022-10-13T05:23:41.996Z,10.61
2022-10-13T05:26:10.857Z,10.61
2022-10-13T05:28:38.306Z,10.71
2022-10-13T05:31:19.988Z,10.69
2022-10-13T05:33:47.020Z,10.76
2022-10-13T05:36:17.006Z,10.77
2022-10-13T05:38:43.966Z,10.73
2022-10-13T05:41:13.085Z,10.76
2022-10-13T05:43:40.804Z,10.77
2022-10-13T05:46:08.275Z,10.74
2022-10-13T05:48:35.718Z,10.70
2022-10-13T05:51:09.914Z,10.67
2022-10-13T05:53:38.939Z,10.70
2022-10-13T05:56:10.968Z,10.70
2022-10-13T05:58:46.145Z,10.64
2022-10-13T06:01:17.244Z,10.67
2022-10-13T06:03:45.031Z,10.63
2022-10-13T06:06:11.504Z,10.67
2022-10-13T06:08:38.437Z,10.70
2022-10-13T06:11:05.561Z,10.69
2022-10-13T06:13:32.027Z,10.69
2022-10-13T06:15:58.489Z,10.70
2022-10-13T06:18:25.065Z,10.74
2022-10-13T06:20:51.617Z,10.76
2022-10-13T06:23:19.504Z,10.74
2022-10-13T06:25:49.448Z,10.80
2022-10-13T06:28:18.727Z,10.79
2022-10-13T06:33:40.113Z,10.83
2022-10-13T06:36:07.680Z,10.88
2022-10-13T06:38:34.339Z,10.87
2022-10-13T06:41:02.061Z,10.90
2022-10-13T06:43:37.262Z,10.92
2022-10-13T06:46:06.279Z,10.92
2022-10-13T06:48:33.075Z,10.97
2022-10-13T06:51:08.821Z,11.00
2022-10-13T06:53:35.486Z,11.02
2022-10-13T06:56:05.383Z,11.06
2022-10-13T06:58:32.204Z,11.11
2022-10-13T07:00:58.732Z,11.10
2022-10-13T07:03:26.095Z,11.15
2022-10-13T07:05:55.183Z,11.22
2022-10-13T07:08:21.765Z,11.25
2022-10-13T07:10:48.937Z,11.32
2022-10-13T07:13:15.511Z,11.36
2022-10-13T07:15:42.179Z,11.49
2022-10-13T07:18:09.106Z,11.56
2022-10-13T07:20:36.196Z,11.59
2022-10-13T07:23:03.155Z,11.62
2022-10-13T07:25:29.890Z,11.66
2022-10-13T07:27:58.475Z,11.70
2022-10-13T07:30:25.114Z,11.73
2022-10-13T07:32:51.868Z,11.75
2022-10-13T07:35:18.601Z,11.76
2022-10-13T07:37:45.761Z,11.73
2022-10-13T07:40:12.476Z,11.83
2022-10-13T07:42:39.083Z,11.94
2022-10-13T07:45:06.317Z,12.01
2022-10-13T07:47:32.777Z,12.11
2022-10-13T07:49:59.365Z,12.07
2022-10-13T07:52:25.945Z,12.08
2022-10-13T07:54:52.525Z,12.01
2022-10-13T07:57:18.985Z,12.01
2022-10-13T07:59:45.822Z,12.01
2022-10-13T08:02:12.322Z,12.04
2022-10-13T08:04:39.202Z,12.13
2022-10-13T08:07:06.391Z,12.21
2022-10-13T08:09:33.653Z,12.25
2022-10-13T08:12:01.768Z,12.37
2022-10-13T08:14:29.373Z,12.48
2022-10-13T08:16:56.588Z,12.55
2022-10-13T08:19:26.273Z,12.69
2022-10-13T08:21:58.118Z,12.75
2022-10-13T08:24:27.541Z,12.79
2022-10-13T08:26:54.517Z,12.85
2022-10-13T08:29:23.450Z,12.85
2022-10-13T08:31:53.017Z,12.86
2022-10-13T08:34:20.520Z,12.97
2022-10-13T08:36:47.680Z,12.99
2022-10-13T08:39:14.225Z,13.15
2022-10-13T08:41:46.588Z,13.10
2022-10-13T08:45:05.850Z,13.10
2022-10-13T08:47:30.493Z,13.10
2022-10-13T08:50:01.151Z,13.19
2022-10-13T08:52:42.433Z,13.28
2022-10-13T08:55:21.484Z,13.33
2022-10-13T08:57:48.324Z,13.34
2022-10-13T09:00:15.004Z,13.34
2022-10-13T09:02:43.448Z,13.51
2022-10-13T09:05:20.356Z,13.61
2022-10-13T09:07:47.222Z,13.89
2022-10-13T09:10:15.427Z,13.96
2022-10-13T09:12:42.019Z,14.15
2022-10-13T09:15:11.018Z,14.43
2022-10-13T09:17:40.287Z,14.32
2022-10-13T09:20:27.809Z,14.32
2022-10-13T09:23:05.082Z,14.33
2022-10-13T09:25:44.143Z,14.37
2022-10-13T09:28:40.468Z,14.44
2022-10-13T09:31:26.549Z,14.67
2022-10-13T09:34:08.467Z,14.71
2022-10-13T09:36:35.569Z,14.73
2022-10-13T09:39:08.595Z,14.73
2022-10-13T09:41:36.265Z,15.36
2022-10-13T09:44:11.695Z,15.36
2022-10-13T09:46:50.643Z,15.60
2022-10-13T09:49:38.312Z,15.69
2022-10-13T09:52:12.413Z,15.91
2022-10-13T09:54:47.963Z,15.91
2022-10-13T09:57:31.501Z,15.90
2022-10-13T10:00:07.413Z,15.54
2022-10-13T10:02:40.903Z,15.60
2022-10-13T10:05:19.084Z,15.91
2022-10-13T10:07:45.909Z,16.55
2022-10-13T10:10:34.070Z,16.53
2022-10-13T10:13:02.153Z,16.90
2022-10-13T10:15:46.717Z,16.90
2022-10-13T10:18:29.107Z,16.87
2022-10-13T10:21:16.638Z,16.97
2022-10-13T10:23:50.349Z,17.59
2022-10-13T10:26:32.502Z,18.29
2022-10-13T10:29:17.180Z,19.26
2022-10-13T10:31:56.032Z,19.10
2022-10-13T10:34:45.589Z,19.03
2022-10-13T10:37:26.917Z,19.22
2022-10-13T10:40:20.503Z,18.91
2022-10-13T10:43:03.836Z,18.38
2022-10-13T10:45:39.194Z,17.73
2022-10-13T10:48:34.889Z,17.69
2022-10-13T10:51:02.326Z,17.35
2022-10-13T10:53:45.927Z,17.48
2022-10-13T10:56:32.173Z,17.44
2022-10-13T10:59:13.742Z,17.55
2022-10-13T11:01:49.162Z,17.52
2022-10-13T11:04:48.424Z,17.63
2022-10-13T11:07:55.123Z,17.58
2022-10-13T11:10:22.724Z,17.83
2022-10-13T11:12:51.959Z,17.61
2022-10-13T11:15:42.230Z,17.41
2022-10-13T11:18:46.506Z,17.37
2022-10-13T11:21:16.360Z,17.23
2022-10-13T11:23:49.452Z,17.24
2022-10-13T11:26:41.940Z,17.18
2022-10-13T11:29:19.204Z,17.18
2022-10-13T11:31:51.733Z,17.10
2022-10-13T11:34:30.772Z,16.92
2022-10-13T11:37:00.253Z,16.84
2022-10-13T11:39:27.845Z,16.83
2022-10-13T11:42:20.228Z,16.75
2022-10-13T11:45:18.539Z,16.68
2022-10-13T11:51:21.067Z,16.48
2022-10-13T11:54:06.176Z,16.42
2022-10-13T11:56:48.469Z,16.43
2022-10-13T11:59:24.880Z,16.18
2022-10-13T12:02:10.038Z,16.11
2022-10-13T12:04:37.512Z,15.94
2022-10-13T12:07:09.475Z,15.83
2022-10-13T12:09:49.946Z,15.77
2022-10-13T12:12:19.741Z,15.80
2022-10-13T12:14:51.077Z,15.86
2022-10-13T12:17:27.448Z,15.83
2022-10-13T12:19:56.542Z,15.87
2022-10-13T12:22:24.240Z,15.93
2022-10-13T12:25:04.168Z,15.97
2022-10-13T12:27:33.332Z,16.03
2022-10-13T12:30:01.234Z,16.11
2022-10-13T12:32:30.684Z,16.18
2022-10-13T12:35:11.112Z,16.17
2022-10-13T12:37:38.486Z,16.25
2022-10-13T12:40:05.612Z,16.31
2022-10-13T12:42:34.777Z,16.63
2022-10-13T12:45:02.382Z,16.65
2022-10-13T12:47:55.321Z,16.63
2022-10-13T12:50:28.006Z,16.51
2022-10-13T12:53:17.174Z,16.51
2022-10-13T12:55:59.295Z,16.48
2022-10-13T12:58:29.220Z,16.66
2022-10-13T13:01:00.740Z,16.61
2022-10-13T13:03:29.763Z,16.43
2022-10-13T13:06:21.063Z,16.38
2022-10-13T13:08:47.953Z,16.20
2022-10-13T13:11:22.101Z,16.25
2022-10-13T13:13:48.676Z,16.20
2022-10-13T13:16:16.650Z,16.10
2022-10-13T13:18:45.100Z,16.11
2022-10-13T13:21:14.876Z,16.11
2022-10-13T13:23:43.782Z,16.17
2022-10-13T13:26:15.382Z,16.18
2022-10-13T13:28:45.820Z,16.20
2022-10-13T13:31:13.427Z,16.21
2022-10-13T13:33:40.207Z,16.24
2022-10-13T13:36:19.626Z,16.35
2022-10-13T13:38:46.621Z,16.28
2022-10-13T13:41:16.993Z,16.20
2022-10-13T13:43:43.842Z,16.13
2022-10-13T13:46:16.667Z,15.96
2022-10-13T13:48:43.718Z,15.89
2022-10-13T13:51:10.903Z,15.83
2022-10-13T13:53:37.943Z,15.78
2022-10-13T13:56:05.241Z,15.73
2022-10-13T13:58:33.267Z,15.66
2022-10-13T14:01:00.123Z,15.63
2022-10-13T14:03:29.395Z,15.60
2022-10-13T14:05:55.885Z,15.60
2022-10-13T14:08:22.440Z,15.64
2022-10-13T14:10:49.099Z,15.57
2022-10-13T14:13:15.752Z,15.59
2022-10-13T14:15:43.294Z,15.56
2022-10-13T14:18:09.777Z,15.42
2022-10-13T14:20:41.734Z,15.47
2022-10-13T14:23:08.232Z,15.42
2022-10-13T14:25:34.801Z,15.32
2022-10-13T14:28:01.373Z,15.28
2022-10-13T14:30:28.097Z,15.18
2022-10-13T14:32:54.734Z,15.19
2022-10-13T14:35:21.224Z,15.19
2022-10-13T14:37:47.770Z,15.16
2022-10-13T14:40:15.267Z,15.12
2022-10-13T14:42:42.618Z,15.12
2022-10-13T14:45:09.876Z,15.06
2022-10-13T14:47:37.785Z,15.06
2022-10-13T14:50:04.828Z,15.04
2022-10-13T14:55:12.449Z,15.09
2022-10-13T15:00:19.757Z,15.06
2022-10-13T15:02:46.328Z,15.01
2022-10-13T15:05:20.710Z,14.96
2022-10-13T15:07:47.188Z,14.99
2022-10-13T15:10:13.701Z,15.02
2022-10-13T15:12:40.210Z,14.98
2022-10-13T15:15:07.436Z,14.98
2022-10-13T15:17:33.937Z,14.88
2022-10-13T15:20:00.609Z,14.85
2022-10-13T15:22:27.111Z,14.85
2022-10-13T15:24:53.872Z,14.85
2022-10-13T15:27:20.442Z,14.81
2022-10-13T15:29:47.090Z,14.81
2022-10-13T15:32:18.469Z,14.74
2022-10-13T15:34:45.383Z,14.71
2022-10-13T15:37:12.532Z,14.73
2022-10-13T15:39:39.047Z,14.68
2022-10-13T15:42:05.908Z,14.70
2022-10-13T15:44:57.352Z,14.64
2022-10-13T15:47:19.632Z,14.56
2022-10-13T15:49:46.175Z,14.59
2022-10-13T15:52:12.750Z,14.53
2022-10-13T15:54:39.350Z,14.50
2022-10-13T15:57:05.946Z,14.52
2022-10-13T15:59:32.551Z,14.44
2022-10-13T16:01:59.035Z,14.44
2022-10-13T16:07:06.196Z,14.47
2022-10-13T16:09:32.765Z,14.46
2022-10-13T16:14:39.709Z,14.38
2022-10-13T16:19:46.743Z,14.37
2022-10-13T16:22:14.468Z,14.38
2022-10-13T16:24:48.801Z,14.36
2022-10-13T16:27:15.571Z,14.38
2022-10-13T16:29:42.103Z,14.34
2022-10-13T16:32:16.493Z,14.37
2022-10-13T16:34:42.985Z,14.38
2022-10-13T16:37:09.489Z,14.32
2022-10-13T16:39:41.342Z,14.26
2022-10-13T16:42:09.171Z,14.34
2022-10-13T16:44:35.639Z,14.33
2022-10-13T16:47:04.861Z,14.27
2022-10-13T16:49:32.206Z,14.29
2022-10-13T16:51:58.697Z,14.23
2022-10-13T16:54:25.407Z,14.15
2022-10-13T16:56:51.884Z,14.09
2022-10-13T16:59:18.457Z,14.01
2022-10-13T17:01:45.284Z,14.04
2022-10-13T17:04:12.977Z,14.01
2022-10-13T17:06:41.035Z,14.06
2022-10-13T17:09:07.776Z,13.98
2022-10-13T17:11:35.433Z,14.04
2022-10-13T17:14:01.964Z,14.08
2022-10-13T17:16:28.715Z,14.02
2022-10-13T17:18:55.507Z,13.96
2022-10-13T17:21:38.121Z,13.99
2022-10-13T17:24:04.805Z,14.04
2022-10-13T17:26:31.591Z,14.02
2022-10-13T17:29:01.022Z,14.04
2022-10-13T17:31:27.633Z,14.05
2022-10-13T17:33:54.842Z,14.05
2022-10-13T17:36:29.438Z,14.01
2022-10-13T17:39:01.545Z,14.02
2022-10-13T17:41:28.033Z,14.04
2022-10-13T17:43:54.681Z,14.01
2022-10-13T17:46:42.097Z,14.02
2022-10-13T17:49:14.839Z,13.99
2022-10-13T17:51:42.446Z,14.01
2022-10-13T18:08:58.823Z,13.88
2022-10-13T18:11:25.786Z,13.84
2022-10-13T18:13:52.767Z,13.98
2022-10-13T18:16:22.264Z,13.94
2022-10-13T18:18:50.207Z,13.79
2022-10-13T18:21:22.487Z,13.78
2022-10-13T18:23:49.149Z,13.79
2022-10-13T18:26:19.157Z,13.75
2022-10-13T18:28:47.367Z,13.74
2022-10-13T18:31:21.640Z,13.75
2022-10-13T18:33:48.761Z,13.71
2022-10-13T18:36:23.712Z,13.64
2022-10-13T18:38:51.132Z,13.64
2022-10-13T18:41:19.704Z,13.67
2022-10-13T18:43:46.444Z,13.64
2022-10-13T18:46:13.138Z,13.67
2022-10-13T18:48:40.729Z,13.64
2022-10-13T18:51:15.741Z,13.67
2022-10-13T18:53:44.510Z,13.59
2022-10-13T18:56:16.507Z,13.62
2022-10-13T18:58:43.166Z,13.65
2022-10-13T19:01:12.104Z,13.65
2022-10-13T19:03:40.969Z,13.65
2022-10-13T19:06:09.715Z,13.68
2022-10-13T19:08:36.485Z,13.72
2022-10-13T19:11:15.166Z,13.82
2022-10-13T19:13:42.068Z,13.82
2022-10-13T19:16:09.532Z,13.89
2022-10-13T19:18:36.159Z,13.88
2022-10-13T19:21:02.923Z,13.94
2022-10-13T19:23:29.722Z,13.95
2022-10-13T19:25:56.769Z,13.89
2022-10-13T19:28:23.837Z,13.91
2022-10-13T19:30:50.530Z,13.92
2022-10-13T19:33:18.350Z,13.92
2022-10-13T19:35:46.468Z,13.86
2022-10-13T19:38:14.084Z,13.94
2022-10-13T19:40:49.640Z,13.92
2022-10-13T19:43:19.953Z,13.94
2022-10-13T19:45:49.159Z,13.92
2022-10-13T19:48:16.991Z,13.82
2022-10-13T19:50:43.755Z,13.81
2022-10-13T19:53:11.053Z,13.84
2022-10-13T19:55:42.177Z,13.88
2022-10-13T19:58:09.071Z,13.84
2022-10-13T20:00:36.178Z,13.91
2022-10-13T20:03:03.862Z,13.88
2022-10-13T20:05:30.811Z,13.85
2022-10-13T20:07:57.524Z,13.91
2022-10-13T20:10:24.233Z,13.91
2022-10-13T20:12:50.796Z,13.86
2022-10-13T20:15:17.368Z,13.89
2022-10-13T20:17:43.938Z,13.82
2022-10-13T20:20:10.898Z,13.84
2022-10-13T20:22:39.606Z,13.86
2022-10-13T20:25:07.760Z,13.96
2022-10-13T20:27:34.679Z,13.96
2022-10-13T20:30:01.405Z,13.98
2022-10-13T20:32:27.990Z,13.86
2022-10-13T20:34:54.594Z,13.96
2022-10-13T20:37:21.582Z,13.98
2022-10-13T20:39:48.282Z,13.98
2022-10-13T20:42:14.861Z,14.04
2022-10-13T20:44:45.191Z,13.92
2022-10-13T20:47:11.823Z,13.95
2022-10-13T20:49:38.441Z,13.94
2022-10-13T20:52:05.120Z,14.04
2022-10-13T20:54:32.108Z,13.92
2022-10-13T20:56:59.038Z,14.01
2022-10-13T20:59:25.581Z,13.96
2022-10-13T21:01:52.226Z,13.95
2022-10-13T21:04:19.010Z,13.95
2022-10-13T21:06:46.375Z,13.91
2022-10-13T21:09:13.069Z,13.94
2022-10-13T21:11:39.859Z,13.96
2022-10-13T21:14:08.565Z,13.89
2022-10-13T21:16:35.591Z,13.79
2022-10-13T21:19:02.673Z,13.85
2022-10-13T21:21:31.250Z,13.77
2022-10-13T21:24:03.838Z,13.78
2022-10-13T21:26:31.690Z,13.71
2022-10-13T21:28:58.449Z,13.62
2022-10-13T21:31:25.762Z,13.62
2022-10-13T21:33:53.846Z,13.61
2022-10-13T21:36:26.561Z,13.58
2022-10-13T21:38:56.294Z,13.53
2022-10-13T21:41:23.495Z,13.57
2022-10-13T21:43:51.004Z,13.58
2022-10-13T21:46:21.804Z,13.58
2022-10-13T21:48:48.858Z,13.58
2022-10-13T21:51:24.199Z,13.54
2022-10-13T21:53:53.459Z,13.58
2022-10-13T21:56:21.011Z,13.55
2022-10-13T21:58:49.051Z,13.57
2022-10-13T22:01:17.124Z,13.61
2022-10-13T22:03:44.064Z,13.59
2022-10-13T22:06:18.223Z,13.62
2022-10-13T22:08:47.598Z,13.64
2022-10-13T22:11:15.532Z,13.68
2022-10-13T22:13:42.100Z,13.57
2022-10-13T22:16:24.230Z,13.44
2022-10-13T22:18:55.367Z,13.38
2022-10-13T22:21:25.454Z,13.36
2022-10-13T22:23:52.120Z,13.40
2022-10-13T22:26:19.343Z,13.38
2022-10-13T22:28:48.437Z,13.37
2022-10-13T22:31:15.555Z,13.36
2022-10-13T22:33:43.331Z,13.36
2022-10-13T22:36:20.628Z,13.33
2022-10-13T22:38:49.154Z,13.31
2022-10-13T22:41:17.594Z,13.31
2022-10-13T22:43:44.955Z,13.27
2022-10-13T22:46:15.823Z,13.27
2022-10-13T22:48:43.099Z,13.19
2022-10-13T22:51:10.910Z,13.17
2022-10-13T22:53:37.721Z,13.04
2022-10-13T22:56:08.976Z,12.96
2022-10-13T22:58:36.036Z,12.90
2022-10-13T23:01:10.996Z,12.85
2022-10-13T23:03:38.377Z,12.88
2022-10-13T23:06:06.792Z,12.83
2022-10-13T23:08:34.165Z,12.89
2022-10-13T23:11:00.899Z,12.89
2022-10-13T23:13:27.431Z,12.92
2022-10-13T23:15:53.989Z,12.78
2022-10-13T23:18:20.558Z,12.78
2022-10-13T23:20:47.264Z,12.73
2022-10-13T23:23:13.828Z,12.76
2022-10-13T23:25:40.363Z,12.73
2022-10-13T23:28:08.103Z,12.75
2022-10-13T23:30:34.833Z,12.73
2022-10-13T23:33:01.482Z,12.71
2022-10-13T23:35:28.274Z,12.76
2022-10-13T23:37:54.923Z,12.76
2022-10-13T23:40:21.918Z,12.75
2022-10-13T23:42:48.498Z,12.73
2022-10-13T23:45:15.225Z,12.69
2022-10-13T23:47:41.792Z,12.71
2022-10-13T23:50:08.851Z,12.65
2022-10-13T23:52:35.563Z,12.65
2022-10-13T23:55:02.170Z,12.61
